sensor_id;sensor_type;location;lat;lon;timestamp;pressure;altitude;pressure_sealevel;temperature;humidity
59417;BME280;45222;52.458;20.914;2022-12-07T00:03:04;99993.27;;;0.16;89.36
59417;BME280;45222;52.458;20.914;2022-12-07T00:06:53;99993.42;;;0.18;89.47
59417;BME280;45222;52.458;20.914;2022-12-07T00:10:40;99991.52;;;0.18;89.70
59417;BME280;45222;52.458;20.914;2022-12-07T00:14:28;99990.08;;;0.19;89.76
59417;BME280;45222;52.458;20.914;2022-12-07T00:18:15;99987.48;;;0.18;89.89
59417;BME280;45222;52.458;20.914;2022-12-07T00:22:02;99988.92;;;0.14;90.05
59417;BME280;45222;52.458;20.914;2022-12-07T00:25:49;99987.70;;;0.14;89.93
59417;BME280;45222;52.458;20.914;2022-12-07T00:29:36;99989.70;;;0.08;90.02
59417;BME280;45222;52.458;20.914;2022-12-07T00:33:24;99985.03;;;0.03;90.13
59417;BME280;45222;52.458;20.914;2022-12-07T00:37:11;99985.44;;;-0.03;90.19
59417;BME280;45222;52.458;20.914;2022-12-07T00:41:00;99986.69;;;-0.05;90.01
59417;BME280;45222;52.458;20.914;2022-12-07T00:44:48;99990.90;;;-0.06;90.19
59417;BME280;45222;52.458;20.914;2022-12-07T00:48:35;99984.75;;;-0.03;90.26
59417;BME280;45222;52.458;20.914;2022-12-07T00:52:22;99982.02;;;0.06;90.54
59417;BME280;45222;52.458;20.914;2022-12-07T00:56:11;99978.98;;;0.12;90.68
59417;BME280;45222;52.458;20.914;2022-12-07T00:59:59;99972.95;;;0.19;90.75
59417;BME280;45222;52.458;20.914;2022-12-07T01:03:46;99969.91;;;0.25;90.68
59417;BME280;45222;52.458;20.914;2022-12-07T01:07:33;99970.69;;;0.32;90.34
59417;BME280;45222;52.458;20.914;2022-12-07T01:11:22;99967.01;;;0.32;90.31
59417;BME280;45222;52.458;20.914;2022-12-07T01:15:11;99966.14;;;0.33;90.18
59417;BME280;45222;52.458;20.914;2022-12-07T01:18:59;99960.27;;;0.38;90.49
59417;BME280;45222;52.458;20.914;2022-12-07T01:22:46;99956.10;;;0.37;90.41
59417;BME280;45222;52.458;20.914;2022-12-07T01:26:34;99958.02;;;0.38;90.16
59417;BME280;45222;52.458;20.914;2022-12-07T01:30:21;99957.36;;;0.35;90.24
59417;BME280;45222;52.458;20.914;2022-12-07T01:34:09;99955.96;;;0.34;90.13
59417;BME280;45222;52.458;20.914;2022-12-07T01:37:56;99950.38;;;0.34;89.94
59417;BME280;45222;52.458;20.914;2022-12-07T01:41:43;99946.37;;;0.33;90.17
59417;BME280;45222;52.458;20.914;2022-12-07T01:45:40;99943.02;;;0.35;90.35
59417;BME280;45222;52.458;20.914;2022-12-07T01:49:31;99937.52;;;0.40;90.45
59417;BME280;45222;52.458;20.914;2022-12-07T01:53:20;99940.95;;;0.45;90.53
59417;BME280;45222;52.458;20.914;2022-12-07T01:57:09;99938.33;;;0.45;90.22
59417;BME280;45222;52.458;20.914;2022-12-07T02:00:57;99939.35;;;0.46;90.15
59417;BME280;45222;52.458;20.914;2022-12-07T02:04:45;99935.83;;;0.49;90.23
59417;BME280;45222;52.458;20.914;2022-12-07T02:08:33;99931.80;;;0.49;90.35
59417;BME280;45222;52.458;20.914;2022-12-07T02:12:21;99930.23;;;0.49;90.55
59417;BME280;45222;52.458;20.914;2022-12-07T02:16:17;99930.19;;;0.51;90.38
59417;BME280;45222;52.458;20.914;2022-12-07T02:20:25;99926.21;;;0.47;90.47
59417;BME280;45222;52.458;20.914;2022-12-07T02:24:31;99927.46;;;0.46;90.67
59417;BME280;45222;52.458;20.914;2022-12-07T02:28:29;99926.58;;;0.46;90.32
59417;BME280;45222;52.458;20.914;2022-12-07T02:32:24;99926.84;;;0.42;90.39
59417;BME280;45222;52.458;20.914;2022-12-07T02:36:21;99922.77;;;0.44;90.40
59417;BME280;45222;52.458;20.914;2022-12-07T02:40:17;99920.68;;;0.44;90.75
59417;BME280;45222;52.458;20.914;2022-12-07T02:44:08;99918.33;;;0.50;90.74
59417;BME280;45222;52.458;20.914;2022-12-07T02:48:00;99918.42;;;0.54;90.95
59417;BME280;45222;52.458;20.914;2022-12-07T02:51:48;99920.20;;;0.53;90.86
59417;BME280;45222;52.458;20.914;2022-12-07T02:55:38;99918.77;;;0.55;90.70
59417;BME280;45222;52.458;20.914;2022-12-07T02:59:39;99916.27;;;0.58;90.79
59417;BME280;45222;52.458;20.914;2022-12-07T03:03:35;99914.45;;;0.63;90.71
59417;BME280;45222;52.458;20.914;2022-12-07T03:07:29;99913.60;;;0.62;90.94
59417;BME280;45222;52.458;20.914;2022-12-07T03:11:24;99912.63;;;0.67;91.15
59417;BME280;45222;52.458;20.914;2022-12-07T03:15:18;99909.63;;;0.70;91.22
59417;BME280;45222;52.458;20.914;2022-12-07T03:19:10;99910.92;;;0.64;91.21
59417;BME280;45222;52.458;20.914;2022-12-07T03:23:00;99913.45;;;0.60;91.23
59417;BME280;45222;52.458;20.914;2022-12-07T03:26:53;99910.18;;;0.56;91.33
59417;BME280;45222;52.458;20.914;2022-12-07T03:30:46;99907.91;;;0.56;91.14
59417;BME280;45222;52.458;20.914;2022-12-07T03:34:38;99904.09;;;0.53;91.12
59417;BME280;45222;52.458;20.914;2022-12-07T03:38:31;99899.91;;;0.53;91.14
59417;BME280;45222;52.458;20.914;2022-12-07T03:42:19;99890.23;;;0.58;91.34
59417;BME280;45222;52.458;20.914;2022-12-07T03:46:17;99885.30;;;0.58;91.41
59417;BME280;45222;52.458;20.914;2022-12-07T03:50:09;99888.25;;;0.60;91.52
59417;BME280;45222;52.458;20.914;2022-12-07T03:54:09;99889.13;;;0.59;91.56
59417;BME280;45222;52.458;20.914;2022-12-07T03:58:02;99882.52;;;0.57;91.36
59417;BME280;45222;52.458;20.914;2022-12-07T04:01:55;99878.84;;;0.57;91.30
59417;BME280;45222;52.458;20.914;2022-12-07T04:05:43;99879.58;;;0.55;91.38
59417;BME280;45222;52.458;20.914;2022-12-07T04:09:31;99874.15;;;0.56;91.26
59417;BME280;45222;52.458;20.914;2022-12-07T04:13:18;99874.75;;;0.61;91.40
59417;BME280;45222;52.458;20.914;2022-12-07T04:17:06;99874.23;;;0.60;91.58
59417;BME280;45222;52.458;20.914;2022-12-07T04:20:53;99872.81;;;0.63;91.52
59417;BME280;45222;52.458;20.914;2022-12-07T04:24:40;99870.20;;;0.61;91.18
59417;BME280;45222;52.458;20.914;2022-12-07T04:28:28;99873.76;;;0.59;91.32
59417;BME280;45222;52.458;20.914;2022-12-07T04:32:15;99871.23;;;0.63;91.41
59417;BME280;45222;52.458;20.914;2022-12-07T04:36:03;99865.23;;;0.65;91.54
59417;BME280;45222;52.458;20.914;2022-12-07T04:39:50;99862.33;;;0.62;91.65
59417;BME280;45222;52.458;20.914;2022-12-07T04:43:38;99861.66;;;0.59;91.62
59417;BME280;45222;52.458;20.914;2022-12-07T04:47:25;99859.20;;;0.60;91.50
59417;BME280;45222;52.458;20.914;2022-12-07T04:51:13;99857.63;;;0.60;91.35
59417;BME280;45222;52.458;20.914;2022-12-07T04:55:00;99856.27;;;0.57;91.57
59417;BME280;45222;52.458;20.914;2022-12-07T04:58:48;99853.66;;;0.56;91.70
59417;BME280;45222;52.458;20.914;2022-12-07T05:02:36;99852.90;;;0.60;91.88
59417;BME280;45222;52.458;20.914;2022-12-07T05:06:23;99850.38;;;0.53;91.92
59417;BME280;45222;52.458;20.914;2022-12-07T05:10:11;99847.31;;;0.48;91.83
59417;BME280;45222;52.458;20.914;2022-12-07T05:13:59;99844.20;;;0.45;91.86
59417;BME280;45222;52.458;20.914;2022-12-07T05:17:46;99843.23;;;0.41;91.77
59417;BME280;45222;52.458;20.914;2022-12-07T05:21:34;99843.52;;;0.45;91.79
59417;BME280;45222;52.458;20.914;2022-12-07T05:25:21;99842.33;;;0.43;91.89
59417;BME280;45222;52.458;20.914;2022-12-07T05:29:11;99843.83;;;0.47;91.95
59417;BME280;45222;52.458;20.914;2022-12-07T05:32:58;99841.38;;;0.47;91.89
59417;BME280;45222;52.458;20.914;2022-12-07T05:36:45;99841.67;;;0.39;91.83
59417;BME280;45222;52.458;20.914;2022-12-07T05:40:33;99840.00;;;0.35;92.00
59417;BME280;45222;52.458;20.914;2022-12-07T05:44:21;99844.61;;;0.30;91.89
59417;BME280;45222;52.458;20.914;2022-12-07T05:48:08;99841.14;;;0.28;91.90
59417;BME280;45222;52.458;20.914;2022-12-07T05:51:55;99841.28;;;0.30;92.03
59417;BME280;45222;52.458;20.914;2022-12-07T05:55:43;99843.39;;;0.29;92.01
59417;BME280;45222;52.458;20.914;2022-12-07T05:59:31;99844.80;;;0.29;92.17
59417;BME280;45222;52.458;20.914;2022-12-07T06:03:22;99850.03;;;0.30;92.25
59417;BME280;45222;52.458;20.914;2022-12-07T06:07:12;99849.13;;;0.32;92.13
59417;BME280;45222;52.458;20.914;2022-12-07T06:10:59;99848.11;;;0.30;91.95
59417;BME280;45222;52.458;20.914;2022-12-07T06:15:01;99847.48;;;0.25;91.79
59417;BME280;45222;52.458;20.914;2022-12-07T06:18:49;99847.02;;;0.20;91.58
59417;BME280;45222;52.458;20.914;2022-12-07T06:22:36;99842.12;;;0.21;91.67
59417;BME280;45222;52.458;20.914;2022-12-07T06:26:25;99839.16;;;0.20;91.78
59417;BME280;45222;52.458;20.914;2022-12-07T06:30:20;99834.51;;;0.16;91.84
59417;BME280;45222;52.458;20.914;2022-12-07T06:34:11;99835.21;;;0.16;91.71
59417;BME280;45222;52.458;20.914;2022-12-07T06:37:58;99835.30;;;0.09;91.83
59417;BME280;45222;52.458;20.914;2022-12-07T06:41:46;99836.23;;;0.05;91.56
59417;BME280;45222;52.458;20.914;2022-12-07T06:45:33;99837.38;;;-0.02;91.53
59417;BME280;45222;52.458;20.914;2022-12-07T06:49:21;99832.15;;;-0.04;91.91
59417;BME280;45222;52.458;20.914;2022-12-07T06:53:09;99828.77;;;0.01;92.00
59417;BME280;45222;52.458;20.914;2022-12-07T06:56:56;99829.10;;;0.02;92.04
59417;BME280;45222;52.458;20.914;2022-12-07T07:00:43;99829.96;;;0.03;92.22
59417;BME280;45222;52.458;20.914;2022-12-07T07:04:31;99832.95;;;0.02;92.15
59417;BME280;45222;52.458;20.914;2022-12-07T07:08:18;99825.85;;;-0.03;92.22
59417;BME280;45222;52.458;20.914;2022-12-07T07:12:06;99829.36;;;-0.04;91.97
59417;BME280;45222;52.458;20.914;2022-12-07T07:15:53;99832.38;;;-0.07;92.05
59417;BME280;45222;52.458;20.914;2022-12-07T07:19:40;99829.41;;;-0.08;92.17
59417;BME280;45222;52.458;20.914;2022-12-07T07:23:28;99829.58;;;-0.07;92.28
59417;BME280;45222;52.458;20.914;2022-12-07T07:27:15;99829.54;;;-0.05;92.36
59417;BME280;45222;52.458;20.914;2022-12-07T07:31:03;99829.16;;;-0.03;92.38
59417;BME280;45222;52.458;20.914;2022-12-07T07:34:50;99829.30;;;0.00;92.51
59417;BME280;45222;52.458;20.914;2022-12-07T07:38:37;99830.66;;;0.03;92.38
59417;BME280;45222;52.458;20.914;2022-12-07T07:42:25;99825.13;;;-0.01;92.47
59417;BME280;45222;52.458;20.914;2022-12-07T07:46:13;99824.99;;;-0.05;92.27
59417;BME280;45222;52.458;20.914;2022-12-07T07:50:00;99825.70;;;-0.05;92.31
59417;BME280;45222;52.458;20.914;2022-12-07T07:53:47;99824.61;;;-0.03;92.45
59417;BME280;45222;52.458;20.914;2022-12-07T07:57:35;99825.27;;;0.00;92.64
59417;BME280;45222;52.458;20.914;2022-12-07T08:01:22;99824.52;;;0.05;92.78
59417;BME280;45222;52.458;20.914;2022-12-07T08:05:10;99826.22;;;0.08;92.79
59417;BME280;45222;52.458;20.914;2022-12-07T08:08:58;99830.14;;;0.15;92.92
59417;BME280;45222;52.458;20.914;2022-12-07T08:12:46;99827.14;;;0.18;92.56
59417;BME280;45222;52.458;20.914;2022-12-07T08:16:51;99828.73;;;0.14;92.73
59417;BME280;45222;52.458;20.914;2022-12-07T08:20:38;99832.53;;;0.19;92.86
59417;BME280;45222;52.458;20.914;2022-12-07T08:24:26;99834.96;;;0.20;92.83
59417;BME280;45222;52.458;20.914;2022-12-07T08:28:13;99836.96;;;0.26;93.03
59417;BME280;45222;52.458;20.914;2022-12-07T08:32:01;99840.55;;;0.33;93.15
59417;BME280;45222;52.458;20.914;2022-12-07T08:35:48;99841.26;;;0.33;93.12
59417;BME280;45222;52.458;20.914;2022-12-07T08:39:36;99838.78;;;0.34;93.19
59417;BME280;45222;52.458;20.914;2022-12-07T08:43:23;99842.91;;;0.38;93.13
59417;BME280;45222;52.458;20.914;2022-12-07T08:47:11;99842.27;;;0.46;93.11
59417;BME280;45222;52.458;20.914;2022-12-07T08:50:59;99842.04;;;0.49;93.38
59417;BME280;45222;52.458;20.914;2022-12-07T08:54:51;99840.35;;;0.57;93.42
59417;BME280;45222;52.458;20.914;2022-12-07T08:58:40;99838.07;;;0.68;93.36
59417;BME280;45222;52.458;20.914;2022-12-07T09:02:27;99834.13;;;0.73;93.35
59417;BME280;45222;52.458;20.914;2022-12-07T09:06:15;99831.95;;;0.77;93.17
59417;BME280;45222;52.458;20.914;2022-12-07T09:10:04;99829.59;;;0.83;93.06
59417;BME280;45222;52.458;20.914;2022-12-07T09:13:51;99825.39;;;0.94;93.08
59417;BME280;45222;52.458;20.914;2022-12-07T09:17:38;99825.98;;;0.99;93.12
59417;BME280;45222;52.458;20.914;2022-12-07T09:21:26;99823.88;;;1.10;92.96
59417;BME280;45222;52.458;20.914;2022-12-07T09:25:13;99817.60;;;1.17;92.59
59417;BME280;45222;52.458;20.914;2022-12-07T09:29:02;99812.98;;;1.20;92.40
59417;BME280;45222;52.458;20.914;2022-12-07T09:32:50;99812.35;;;1.26;92.20
59417;BME280;45222;52.458;20.914;2022-12-07T09:36:42;99808.60;;;1.29;91.94
59417;BME280;45222;52.458;20.914;2022-12-07T09:40:29;99812.21;;;1.33;91.82
59417;BME280;45222;52.458;20.914;2022-12-07T09:44:20;99810.46;;;1.42;91.71
59417;BME280;45222;52.458;20.914;2022-12-07T09:48:16;99803.75;;;1.45;91.30
59417;BME280;45222;52.458;20.914;2022-12-07T09:52:19;99804.38;;;1.49;90.99
59417;BME280;45222;52.458;20.914;2022-12-07T09:56:10;99802.83;;;1.47;90.36
59417;BME280;45222;52.458;20.914;2022-12-07T10:00:03;99803.48;;;1.50;90.21
59417;BME280;45222;52.458;20.914;2022-12-07T10:03:53;99796.89;;;1.55;89.93
59417;BME280;45222;52.458;20.914;2022-12-07T10:07:41;99791.73;;;1.59;89.83
59417;BME280;45222;52.458;20.914;2022-12-07T10:11:28;99793.79;;;1.61;89.41
59417;BME280;45222;52.458;20.914;2022-12-07T10:15:15;99791.54;;;1.59;88.95
59417;BME280;45222;52.458;20.914;2022-12-07T10:19:19;99793.48;;;1.58;88.87
59417;BME280;45222;52.458;20.914;2022-12-07T10:23:16;99790.96;;;1.62;89.12
59417;BME280;45222;52.458;20.914;2022-12-07T10:27:03;99792.35;;;1.62;88.80
59417;BME280;45222;52.458;20.914;2022-12-07T10:30:54;99789.05;;;1.60;88.39
59417;BME280;45222;52.458;20.914;2022-12-07T10:34:44;99791.88;;;1.59;88.43
59417;BME280;45222;52.458;20.914;2022-12-07T10:38:31;99787.14;;;1.59;88.24
59417;BME280;45222;52.458;20.914;2022-12-07T10:42:21;99786.50;;;1.58;88.38
59417;BME280;45222;52.458;20.914;2022-12-07T10:50:38;99781.35;;;1.60;87.98
59417;BME280;45222;52.458;20.914;2022-12-07T10:54:33;99782.23;;;1.60;87.83
59417;BME280;45222;52.458;20.914;2022-12-07T10:58:36;99783.55;;;1.65;87.96
59417;BME280;45222;52.458;20.914;2022-12-07T11:02:37;99793.75;;;1.71;87.80
59417;BME280;45222;52.458;20.914;2022-12-07T11:06:37;99794.98;;;1.70;87.50
59417;BME280;45222;52.458;20.914;2022-12-07T11:10:33;99793.76;;;1.71;87.66
59417;BME280;45222;52.458;20.914;2022-12-07T11:14:34;99795.69;;;1.78;87.54
59417;BME280;45222;52.458;20.914;2022-12-07T11:18:27;99794.89;;;1.83;87.38
59417;BME280;45222;52.458;20.914;2022-12-07T11:22:21;99794.50;;;1.85;87.25
59417;BME280;45222;52.458;20.914;2022-12-07T11:26:17;99787.83;;;1.85;87.14
59417;BME280;45222;52.458;20.914;2022-12-07T11:30:16;99792.84;;;1.87;87.04
59417;BME280;45222;52.458;20.914;2022-12-07T11:34:10;99790.51;;;1.91;87.22
59417;BME280;45222;52.458;20.914;2022-12-07T11:38:01;99786.50;;;1.98;87.04
59417;BME280;45222;52.458;20.914;2022-12-07T11:42:04;99779.26;;;1.99;86.32
59417;BME280;45222;52.458;20.914;2022-12-07T11:45:59;99778.44;;;1.97;86.42
59417;BME280;45222;52.458;20.914;2022-12-07T11:49:53;99769.83;;;1.98;86.51
59417;BME280;45222;52.458;20.914;2022-12-07T11:53:45;99771.95;;;2.05;86.39
59417;BME280;45222;52.458;20.914;2022-12-07T11:57:37;99770.19;;;2.05;86.43
59417;BME280;45222;52.458;20.914;2022-12-07T12:01:39;99764.96;;;2.11;86.29
59417;BME280;45222;52.458;20.914;2022-12-07T12:05:30;99757.77;;;2.19;86.28
59417;BME280;45222;52.458;20.914;2022-12-07T12:09:22;99755.95;;;2.29;85.96
59417;BME280;45222;52.458;20.914;2022-12-07T12:13:47;99753.18;;;2.34;85.75
59417;BME280;45222;52.458;20.914;2022-12-07T12:17:49;99755.92;;;2.37;85.67
59417;BME280;45222;52.458;20.914;2022-12-07T12:21:40;99749.72;;;2.40;85.78
59417;BME280;45222;52.458;20.914;2022-12-07T12:25:29;99749.68;;;2.41;85.69
59417;BME280;45222;52.458;20.914;2022-12-07T12:29:26;99744.95;;;2.41;85.78
59417;BME280;45222;52.458;20.914;2022-12-07T12:33:20;99740.91;;;2.34;85.53
59417;BME280;45222;52.458;20.914;2022-12-07T12:37:43;99735.94;;;2.30;85.58
59417;BME280;45222;52.458;20.914;2022-12-07T12:41:54;99735.91;;;2.31;85.76
59417;BME280;45222;52.458;20.914;2022-12-07T12:50:22;99731.23;;;2.28;85.92
59417;BME280;45222;52.458;20.914;2022-12-07T12:54:15;99727.88;;;2.22;85.92
59417;BME280;45222;52.458;20.914;2022-12-07T13:02:33;99720.11;;;2.09;86.29
59417;BME280;45222;52.458;20.914;2022-12-07T13:06:35;99719.54;;;2.04;86.29
59417;BME280;45222;52.458;20.914;2022-12-07T13:10:32;99716.34;;;1.98;86.46
59417;BME280;45222;52.458;20.914;2022-12-07T13:14:43;99714.23;;;1.99;86.69
59417;BME280;45222;52.458;20.914;2022-12-07T13:18:38;99712.19;;;1.96;86.98
59417;BME280;45222;52.458;20.914;2022-12-07T13:22:47;99715.18;;;1.96;87.25
59417;BME280;45222;52.458;20.914;2022-12-07T13:26:38;99715.64;;;1.98;87.57
59417;BME280;45222;52.458;20.914;2022-12-07T13:30:27;99719.05;;;1.95;87.62
59417;BME280;45222;52.458;20.914;2022-12-07T13:34:33;99719.38;;;1.88;87.85
59417;BME280;45222;52.458;20.914;2022-12-07T13:38:28;99717.04;;;1.83;87.77
59417;BME280;45222;52.458;20.914;2022-12-07T13:42:24;99722.61;;;1.77;88.05
59417;BME280;45222;52.458;20.914;2022-12-07T13:46:12;99717.38;;;1.75;88.19
59417;BME280;45222;52.458;20.914;2022-12-07T13:50:23;99721.63;;;1.74;88.40
59417;BME280;45222;52.458;20.914;2022-12-07T13:54:13;99719.69;;;1.67;88.33
59417;BME280;45222;52.458;20.914;2022-12-07T13:58:01;99717.70;;;1.61;88.27
59417;BME280;45222;52.458;20.914;2022-12-07T14:01:49;99724.52;;;1.54;88.64
59417;BME280;45222;52.458;20.914;2022-12-07T14:05:37;99721.86;;;1.56;88.76
59417;BME280;45222;52.458;20.914;2022-12-07T14:09:27;99719.73;;;1.56;89.03
59417;BME280;45222;52.458;20.914;2022-12-07T14:13:26;99722.73;;;1.55;89.20
59417;BME280;45222;52.458;20.914;2022-12-07T14:17:17;99725.79;;;1.44;89.30
59417;BME280;45222;52.458;20.914;2022-12-07T14:21:13;99731.94;;;1.35;89.31
59417;BME280;45222;52.458;20.914;2022-12-07T14:25:13;99733.77;;;1.31;89.48
59417;BME280;45222;52.458;20.914;2022-12-07T14:33:24;99731.20;;;1.20;89.64
59417;BME280;45222;52.458;20.914;2022-12-07T14:37:12;99728.29;;;1.16;89.74
59417;BME280;45222;52.458;20.914;2022-12-07T14:41:00;99728.70;;;1.13;89.83
59417;BME280;45222;52.458;20.914;2022-12-07T14:45:01;99729.81;;;1.10;89.95
59417;BME280;45222;52.458;20.914;2022-12-07T14:48:49;99730.02;;;1.00;90.12
59417;BME280;45222;52.458;20.914;2022-12-07T14:52:36;99732.48;;;0.90;90.10
59417;BME280;45222;52.458;20.914;2022-12-07T14:56:24;99734.45;;;0.88;90.18
59417;BME280;45222;52.458;20.914;2022-12-07T15:00:15;99738.27;;;0.81;90.21
59417;BME280;45222;52.458;20.914;2022-12-07T15:04:04;99735.16;;;0.79;90.18
59417;BME280;45222;52.458;20.914;2022-12-07T15:07:52;99729.79;;;0.65;90.18
59417;BME280;45222;52.458;20.914;2022-12-07T15:11:39;99724.23;;;0.53;89.86
59417;BME280;45222;52.458;20.914;2022-12-07T15:15:27;99726.41;;;0.38;90.06
59417;BME280;45222;52.458;20.914;2022-12-07T15:19:17;99725.11;;;0.33;90.15
59417;BME280;45222;52.458;20.914;2022-12-07T15:23:05;99718.88;;;0.29;90.26
59417;BME280;45222;52.458;20.914;2022-12-07T15:26:53;99717.41;;;0.22;90.54
59417;BME280;45222;52.458;20.914;2022-12-07T15:30:41;99718.03;;;0.17;90.78
59417;BME280;45222;52.458;20.914;2022-12-07T15:39:38;99715.05;;;0.18;90.71
59417;BME280;45222;52.458;20.914;2022-12-07T15:43:25;99710.13;;;0.20;91.00
59417;BME280;45222;52.458;20.914;2022-12-07T15:47:30;99706.61;;;0.31;91.14
59417;BME280;45222;52.458;20.914;2022-12-07T15:51:18;99700.73;;;0.37;90.94
59417;BME280;45222;52.458;20.914;2022-12-07T15:55:09;99699.67;;;0.37;90.85
59417;BME280;45222;52.458;20.914;2022-12-07T15:58:58;99701.22;;;0.39;90.79
59417;BME280;45222;52.458;20.914;2022-12-07T16:02:46;99701.05;;;0.39;90.90
59417;BME280;45222;52.458;20.914;2022-12-07T16:06:34;99700.77;;;0.45;90.96
59417;BME280;45222;52.458;20.914;2022-12-07T16:10:22;99698.75;;;0.50;91.07
59417;BME280;45222;52.458;20.914;2022-12-07T16:14:09;99697.71;;;0.49;91.30
59417;BME280;45222;52.458;20.914;2022-12-07T16:17:57;99701.59;;;0.48;91.40
59417;BME280;45222;52.458;20.914;2022-12-07T16:21:45;99695.77;;;0.51;91.24
59417;BME280;45222;52.458;20.914;2022-12-07T16:25:34;99687.99;;;0.55;91.33
59417;BME280;45222;52.458;20.914;2022-12-07T16:29:23;99687.20;;;0.59;91.52
59417;BME280;45222;52.458;20.914;2022-12-07T16:33:11;99689.08;;;0.63;91.61
59417;BME280;45222;52.458;20.914;2022-12-07T16:36:58;99684.35;;;0.63;91.75
59417;BME280;45222;52.458;20.914;2022-12-07T16:40:48;99685.06;;;0.62;91.73
59417;BME280;45222;52.458;20.914;2022-12-07T16:44:34;99681.89;;;0.63;91.66
59417;BME280;45222;52.458;20.914;2022-12-07T16:48:21;99679.58;;;0.65;91.83
59417;BME280;45222;52.458;20.914;2022-12-07T16:52:18;99680.23;;;0.66;91.86
59417;BME280;45222;52.458;20.914;2022-12-07T16:56:11;99679.14;;;0.70;91.81
59417;BME280;45222;52.458;20.914;2022-12-07T17:00:00;99678.13;;;0.68;91.81
59417;BME280;45222;52.458;20.914;2022-12-07T17:03:50;99674.36;;;0.72;91.73
59417;BME280;45222;52.458;20.914;2022-12-07T17:07:37;99672.95;;;0.73;91.86
59417;BME280;45222;52.458;20.914;2022-12-07T17:11:26;99676.40;;;0.75;91.92
59417;BME280;45222;52.458;20.914;2022-12-07T17:15:14;99672.79;;;0.81;91.85
59417;BME280;45222;52.458;20.914;2022-12-07T17:19:08;99676.67;;;0.79;91.97
59417;BME280;45222;52.458;20.914;2022-12-07T17:22:55;99675.08;;;0.81;91.67
59417;BME280;45222;52.458;20.914;2022-12-07T17:26:44;99678.75;;;0.80;91.61
59417;BME280;45222;52.458;20.914;2022-12-07T17:30:32;99677.65;;;0.83;91.78
59417;BME280;45222;52.458;20.914;2022-12-07T17:34:20;99681.05;;;0.88;91.77
59417;BME280;45222;52.458;20.914;2022-12-07T17:38:07;99679.02;;;0.94;91.65
59417;BME280;45222;52.458;20.914;2022-12-07T17:46:32;99672.31;;;1.05;91.57
59417;BME280;45222;52.458;20.914;2022-12-07T17:50:18;99683.22;;;1.02;91.44
59417;BME280;45222;52.458;20.914;2022-12-07T17:54:23;99683.76;;;0.93;91.22
59417;BME280;45222;52.458;20.914;2022-12-07T17:58:08;99695.65;;;0.84;91.29
59417;BME280;45222;52.458;20.914;2022-12-07T18:01:53;99695.10;;;0.77;91.31
59417;BME280;45222;52.458;20.914;2022-12-07T18:05:37;99688.95;;;0.69;91.15
59417;BME280;45222;52.458;20.914;2022-12-07T18:09:22;99690.17;;;0.69;91.32
59417;BME280;45222;52.458;20.914;2022-12-07T18:13:07;99695.56;;;0.72;91.46
59417;BME280;45222;52.458;20.914;2022-12-07T18:17:10;99695.22;;;0.71;91.59
59417;BME280;45222;52.458;20.914;2022-12-07T18:20:54;99693.62;;;0.72;91.46
59417;BME280;45222;52.458;20.914;2022-12-07T18:24:40;99697.52;;;0.69;91.42
59417;BME280;45222;52.458;20.914;2022-12-07T18:28:25;99699.64;;;0.69;91.59
59417;BME280;45222;52.458;20.914;2022-12-07T18:32:09;99706.02;;;0.73;91.51
59417;BME280;45222;52.458;20.914;2022-12-07T18:35:55;99708.94;;;0.76;91.61
59417;BME280;45222;52.458;20.914;2022-12-07T18:39:42;99710.23;;;0.73;91.52
59417;BME280;45222;52.458;20.914;2022-12-07T18:43:30;99712.33;;;0.74;91.18
59417;BME280;45222;52.458;20.914;2022-12-07T18:47:14;99715.50;;;0.72;91.25
59417;BME280;45222;52.458;20.914;2022-12-07T18:51:01;99716.13;;;0.75;91.05
59417;BME280;45222;52.458;20.914;2022-12-07T18:54:47;99721.38;;;0.76;90.84
59417;BME280;45222;52.458;20.914;2022-12-07T18:58:32;99720.90;;;0.73;90.71
59417;BME280;45222;52.458;20.914;2022-12-07T19:02:17;99723.52;;;0.74;91.03
59417;BME280;45222;52.458;20.914;2022-12-07T19:06:06;99722.12;;;0.73;90.92
59417;BME280;45222;52.458;20.914;2022-12-07T19:09:50;99719.40;;;0.78;90.83
59417;BME280;45222;52.458;20.914;2022-12-07T19:13:35;99725.18;;;0.78;90.59
59417;BME280;45222;52.458;20.914;2022-12-07T19:17:20;99727.02;;;0.73;90.56
59417;BME280;45222;52.458;20.914;2022-12-07T19:21:06;99731.58;;;0.74;90.59
59417;BME280;45222;52.458;20.914;2022-12-07T19:24:52;99729.98;;;0.74;90.50
59417;BME280;45222;52.458;20.914;2022-12-07T19:28:38;99726.54;;;0.71;90.29
59417;BME280;45222;52.458;20.914;2022-12-07T19:32:24;99727.12;;;0.68;90.18
59417;BME280;45222;52.458;20.914;2022-12-07T19:36:09;99734.12;;;0.68;90.02
59417;BME280;45222;52.458;20.914;2022-12-07T19:39:54;99734.86;;;0.65;89.76
59417;BME280;45222;52.458;20.914;2022-12-07T19:43:39;99743.02;;;0.69;89.74
59417;BME280;45222;52.458;20.914;2022-12-07T19:47:24;99745.86;;;0.67;89.48
59417;BME280;45222;52.458;20.914;2022-12-07T19:51:08;99745.91;;;0.64;89.32
59417;BME280;45222;52.458;20.914;2022-12-07T19:54:53;99752.12;;;0.60;89.40
59417;BME280;45222;52.458;20.914;2022-12-07T19:58:38;99760.38;;;0.57;89.51
59417;BME280;45222;52.458;20.914;2022-12-07T20:02:23;99763.84;;;0.60;89.64
59417;BME280;45222;52.458;20.914;2022-12-07T20:06:10;99765.77;;;0.59;89.56
59417;BME280;45222;52.458;20.914;2022-12-07T20:09:55;99773.52;;;0.56;89.52
59417;BME280;45222;52.458;20.914;2022-12-07T20:13:40;99779.19;;;0.52;89.74
59417;BME280;45222;52.458;20.914;2022-12-07T20:17:25;99781.16;;;0.50;89.74
59417;BME280;45222;52.458;20.914;2022-12-07T20:21:09;99781.04;;;0.46;89.58
59417;BME280;45222;52.458;20.914;2022-12-07T20:24:54;99781.95;;;0.44;89.17
59417;BME280;45222;52.458;20.914;2022-12-07T20:28:40;99781.48;;;0.41;88.97
59417;BME280;45222;52.458;20.914;2022-12-07T20:32:28;99787.67;;;0.37;88.31
59417;BME280;45222;52.458;20.914;2022-12-07T20:36:16;99796.33;;;0.31;88.04
59417;BME280;45222;52.458;20.914;2022-12-07T20:40:01;99800.80;;;0.24;87.99
59417;BME280;45222;52.458;20.914;2022-12-07T20:43:46;99804.88;;;0.20;87.86
59417;BME280;45222;52.458;20.914;2022-12-07T20:47:31;99808.75;;;0.19;87.75